Time;durP1;ratioP1;P1;durP2;ratioP2;P2;SDS_P1;SDS_P2;PMS_P1;PMS_P2;Temp;Humidity;BMP_temperature;BMP_pressure;BME280_temperature;BME280_humidity;BME280_pressure;Samples;Min_cycle;Max_cycle;Signal;HPM_P1;HPM_P2
2022/03/16 00:00:43;;;;;;;41.70;34.30;;;;;21.80;101352.00;;;;2074344;28;20217;-51
2022/03/16 00:01:44;;;;;;;43.53;33.30;;;;;21.80;101347.00;;;;2071175;28;20288;-51
2022/03/16 00:02:44;;;;;;;36.70;31.57;;;;;21.80;101347.00;;;;2071017;28;20218;-51
2022/03/16 00:03:45;;;;;;;40.53;31.37;;;;;21.80;101343.00;;;;2075117;28;20218;-51
2022/03/16 00:04:49;;;;;;;36.30;30.13;;;;;21.80;101344.00;;;;2078954;28;20460;-50
2022/03/16 00:05:50;;;;;;;34.30;27.23;;;;;21.80;101347.00;;;;2078227;28;20308;-51
2022/03/16 00:06:50;;;;;;;33.27;26.83;;;;;21.80;101340.00;;;;2078196;28;20221;-50
2022/03/16 00:07:51;;;;;;;31.70;25.57;;;;;21.80;101352.00;;;;2078532;28;20303;-51
2022/03/16 00:08:52;;;;;;;34.35;26.00;;;;;21.80;101358.00;;;;2075405;28;20234;-50
2022/03/16 00:09:52;;;;;;;31.40;27.10;;;;;21.80;101355.00;;;;2079429;28;20221;-51
2022/03/16 00:10:52;;;;;;;28.60;24.10;;;;;21.80;101355.00;;;;2079175;28;20569;-51
2022/03/16 00:11:53;;;;;;;29.60;23.83;;;;;21.80;101358.00;;;;2078700;28;20205;-51
2022/03/16 00:12:53;;;;;;;28.80;23.23;;;;;21.80;101356.00;;;;2075809;28;20214;-51
2022/03/16 00:13:53;;;;;;;30.37;23.97;;;;;21.80;101356.00;;;;2079263;28;20274;-51
2022/03/16 00:14:54;;;;;;;27.90;23.40;;;;;21.80;101356.00;;;;2075525;28;20241;-50
2022/03/16 00:15:54;;;;;;;28.20;22.93;;;;;21.80;101357.00;;;;2070265;28;20222;-50
2022/03/16 00:16:55;;;;;;;27.00;21.70;;;;;21.80;101358.00;;;;2069816;28;20227;-55
2022/03/16 00:17:55;;;;;;;26.43;21.80;;;;;21.80;101351.00;;;;2076021;28;20221;-56
2022/03/16 00:18:55;;;;;;;27.00;21.40;;;;;21.80;101352.00;;;;2071709;28;20280;-53
2022/03/16 00:19:56;;;;;;;26.80;20.90;;;;;21.70;101341.00;;;;2078167;28;20395;-54
2022/03/16 00:20:58;;;;;;;25.60;22.63;;;;;21.80;101350.00;;;;2078273;28;20295;-49
2022/03/16 00:21:59;;;;;;;24.83;20.25;;;;;21.80;101356.00;;;;2078103;28;20209;-51
2022/03/16 00:23:00;;;;;;;25.63;19.70;;;;;21.80;101363.00;;;;2078134;28;20787;-50
2022/03/16 00:24:00;;;;;;;21.43;19.13;;;;;21.70;101359.00;;;;2078403;28;20488;-51
2022/03/16 00:25:01;;;;;;;24.83;19.40;;;;;21.70;101352.00;;;;2078279;28;20217;-48
2022/03/16 00:26:03;;;;;;;25.00;20.02;;;;;21.70;101348.00;;;;2077276;28;20271;-51
2022/03/16 00:27:03;;;;;;;25.90;20.30;;;;;21.70;101362.00;;;;2077376;28;20797;-52
2022/03/16 00:28:04;;;;;;;25.23;19.47;;;;;21.70;101352.00;;;;2073926;28;20213;-51
2022/03/16 00:29:04;;;;;;;22.20;18.87;;;;;21.70;101360.00;;;;2070141;28;20304;-51
2022/03/16 00:30:05;;;;;;;21.67;18.23;;;;;21.70;101357.00;;;;2070724;28;20229;-50
2022/03/16 00:31:05;;;;;;;24.20;18.10;;;;;21.70;101361.00;;;;2070616;28;20218;-50
2022/03/16 00:32:06;;;;;;;19.67;17.57;;;;;21.70;101362.00;;;;2069599;28;20225;-50
2022/03/16 00:33:06;;;;;;;20.17;17.77;;;;;21.70;101362.00;;;;2069871;28;20228;-51
2022/03/16 00:34:06;;;;;;;20.53;17.77;;;;;21.70;101361.00;;;;2071311;28;20732;-51
2022/03/16 00:35:07;;;;;;;20.83;16.90;;;;;21.70;101369.00;;;;2073499;28;20226;-50
2022/03/16 00:36:07;;;;;;;18.73;16.43;;;;;21.70;101368.00;;;;2070312;28;20242;-50
2022/03/16 00:37:08;;;;;;;22.53;16.77;;;;;21.70;101367.00;;;;2070161;28;21076;-51
2022/03/16 00:38:09;;;;;;;18.00;16.03;;;;;21.70;101369.00;;;;2070664;28;20750;-51
2022/03/16 00:39:10;;;;;;;22.27;17.13;;;;;21.70;101364.00;;;;2070923;28;20222;-51
2022/03/16 00:40:11;;;;;;;17.17;15.37;;;;;21.70;101371.00;;;;2071099;28;20211;-51
2022/03/16 00:41:12;;;;;;;18.00;15.63;;;;;21.70;101368.00;;;;2075032;28;20201;-50
2022/03/16 00:42:12;;;;;;;18.90;15.82;;;;;21.70;101370.00;;;;2078083;28;20448;-51
2022/03/16 00:43:13;;;;;;;17.07;15.27;;;;;21.70;101368.00;;;;2078439;28;20221;-51
2022/03/16 00:44:14;;;;;;;17.05;14.95;;;;;21.70;101372.00;;;;2078804;28;20210;-50
2022/03/16 00:45:14;;;;;;;17.17;14.43;;;;;21.70;101373.00;;;;2070735;28;20213;-51
2022/03/16 00:46:14;;;;;;;18.10;14.73;;;;;21.70;101370.00;;;;2070075;28;20229;-51
2022/03/16 00:47:15;;;;;;;17.37;14.80;;;;;21.70;101372.00;;;;2070349;28;20229;-51
2022/03/16 00:48:16;;;;;;;16.03;14.30;;;;;21.70;101374.00;;;;2068926;28;20284;-50
2022/03/16 00:49:16;;;;;;;16.93;14.03;;;;;21.60;101368.00;;;;2070645;28;20570;-50
2022/03/16 00:50:16;;;;;;;16.17;13.57;;;;;21.60;101372.00;;;;2070852;28;20383;-51
2022/03/16 00:51:17;;;;;;;18.20;13.80;;;;;21.60;101369.00;;;;2070775;28;20217;-51
2022/03/16 00:52:17;;;;;;;16.47;13.87;;;;;21.60;101377.00;;;;2069360;28;20222;-51
2022/03/16 00:53:17;;;;;;;15.07;13.47;;;;;21.60;101378.00;;;;2069823;28;20725;-51
2022/03/16 00:54:18;;;;;;;14.07;12.67;;;;;21.60;101372.00;;;;2070660;28;20710;-50
2022/03/16 00:55:18;;;;;;;16.63;13.33;;;;;21.60;101379.00;;;;2070382;28;20231;-50
2022/03/16 00:56:19;;;;;;;16.60;12.40;;;;;21.60;101374.00;;;;2070307;28;20224;-51
2022/03/16 00:57:19;;;;;;;16.30;13.40;;;;;21.60;101377.00;;;;2070561;28;20241;-51
2022/03/16 00:58:19;;;;;;;16.17;12.90;;;;;21.60;101372.00;;;;2070575;28;20301;-51
2022/03/16 00:59:20;;;;;;;13.17;11.70;;;;;21.60;101380.00;;;;2070918;28;20265;-51
2022/03/16 01:00:20;;;;;;;13.67;12.13;;;;;21.60;101370.00;;;;2070814;28;20210;-51
2022/03/16 01:01:20;;;;;;;16.30;12.07;;;;;21.60;101370.00;;;;2070554;28;20214;-50
2022/03/16 01:02:21;;;;;;;13.37;10.70;;;;;21.60;101368.00;;;;2069762;28;20214;-49
2022/03/16 01:03:21;;;;;;;14.43;12.07;;;;;21.60;101366.00;;;;2070502;28;23053;-51
2022/03/16 01:04:21;;;;;;;12.80;11.50;;;;;21.60;101364.00;;;;2070513;28;21366;-50
2022/03/16 01:05:22;;;;;;;13.10;11.33;;;;;21.60;101365.00;;;;2069443;28;21083;-51
2022/03/16 01:06:22;;;;;;;12.80;11.10;;;;;21.60;101365.00;;;;2070298;28;20226;-51
2022/03/16 01:07:22;;;;;;;12.10;10.83;;;;;21.60;101377.00;;;;2070368;28;20694;-50
2022/03/16 01:08:23;;;;;;;12.53;11.20;;;;;21.60;101358.00;;;;2070382;28;20736;-50
2022/03/16 01:09:23;;;;;;;12.00;10.80;;;;;21.60;101369.00;;;;2070727;28;20317;-50
2022/03/16 01:10:23;;;;;;;12.10;10.70;;;;;21.60;101377.00;;;;2070749;28;20218;-51
2022/03/16 01:11:24;;;;;;;12.97;10.77;;;;;21.60;101371.00;;;;2070558;28;20628;-50
2022/03/16 01:12:24;;;;;;;12.27;10.77;;;;;21.60;101374.00;;;;2070890;28;20229;-50
2022/03/16 01:13:24;;;;;;;11.80;10.60;;;;;21.60;101363.00;;;;2074100;28;20217;-50
2022/03/16 01:14:25;;;;;;;11.47;10.13;;;;;21.60;101373.00;;;;2074535;28;20221;-51
2022/03/16 01:15:25;;;;;;;11.07;9.87;;;;;21.60;101373.00;;;;2069295;28;20721;-49
2022/03/16 01:16:25;;;;;;;12.40;10.20;;;;;21.50;101372.00;;;;2070667;28;20280;-50
2022/03/16 01:17:26;;;;;;;11.27;10.17;;;;;21.50;101373.00;;;;2070144;28;20222;-51
2022/03/16 01:18:26;;;;;;;10.03;8.97;;;;;21.50;101371.00;;;;2069906;28;20775;-50
2022/03/16 01:19:28;;;;;;;10.97;9.60;;;;;21.50;101371.00;;;;2070497;28;20918;-51
2022/03/16 01:20:28;;;;;;;11.40;10.20;;;;;21.50;101367.00;;;;2070503;28;20214;-49
2022/03/16 01:21:28;;;;;;;10.97;9.73;;;;;21.50;101367.00;;;;2069794;28;20217;-49
2022/03/16 01:22:29;;;;;;;10.30;9.30;;;;;21.50;101359.00;;;;2069817;28;20226;-50
2022/03/16 01:23:29;;;;;;;11.40;9.90;;;;;21.50;101363.00;;;;2070390;28;20229;-49
2022/03/16 01:24:29;;;;;;;10.73;8.87;;;;;21.50;101364.00;;;;2070251;28;20752;-50
2022/03/16 01:25:30;;;;;;;10.03;8.50;;;;;21.50;101369.00;;;;2069710;28;20752;-49
2022/03/16 01:26:30;;;;;;;11.23;9.43;;;;;21.50;101371.00;;;;2070566;28;20282;-51
2022/03/16 01:27:30;;;;;;;10.30;9.00;;;;;21.50;101368.00;;;;2069567;28;20573;-50
2022/03/16 01:28:31;;;;;;;9.77;8.77;;;;;21.50;101358.00;;;;2069453;28;20600;-50
2022/03/16 01:29:32;;;;;;;10.30;9.30;;;;;21.50;101365.00;;;;2070437;28;20760;-50
2022/03/16 01:30:32;;;;;;;10.73;9.17;;;;;21.50;101365.00;;;;2070478;28;20681;-50
2022/03/16 01:31:33;;;;;;;9.77;8.60;;;;;21.50;101370.00;;;;2070361;28;20452;-51
2022/03/16 01:32:34;;;;;;;9.75;8.05;;;;;21.50;101359.00;;;;2069403;28;20218;-51
2022/03/16 01:33:34;;;;;;;8.40;7.60;;;;;21.50;101369.00;;;;2069984;28;20214;-50
2022/03/16 01:34:35;;;;;;;9.33;8.43;;;;;21.50;101362.00;;;;2071467;28;20214;-50
2022/03/16 01:35:35;;;;;;;9.67;8.70;;;;;21.50;101364.00;;;;2069694;28;20309;-49
2022/03/16 01:36:37;;;;;;;9.20;8.30;;;;;21.50;101361.00;;;;2070524;28;20228;-50
2022/03/16 01:37:38;;;;;;;10.48;8.65;;;;;21.50;101362.00;;;;2065822;28;20281;-51
2022/03/16 01:38:38;;;;;;;9.27;8.30;;;;;21.50;101367.00;;;;2069585;28;20264;-50
2022/03/16 01:39:38;;;;;;;8.83;7.93;;;;;21.40;101374.00;;;;2069846;28;20217;-49
2022/03/16 01:40:39;;;;;;;9.60;7.90;;;;;21.40;101356.00;;;;2070173;28;20682;-51
2022/03/16 01:41:39;;;;;;;9.53;7.57;;;;;21.40;101364.00;;;;2076265;28;20220;-51
2022/03/16 01:42:40;;;;;;;8.50;7.70;;;;;21.40;101370.00;;;;2069771;28;20210;-50
2022/03/16 01:43:40;;;;;;;9.30;8.10;;;;;21.40;101376.00;;;;2062587;28;20305;-50
2022/03/16 01:44:48;;;;;;;8.27;7.37;;;;;21.40;101370.00;;;;2069430;28;20547;-50
2022/03/16 01:45:49;;;;;;;8.70;7.80;;;;;21.40;101366.00;;;;2072815;28;20960;-50
2022/03/16 01:46:49;;;;;;;8.88;7.40;;;;;21.40;101368.00;;;;2068637;28;20591;-50
2022/03/16 01:47:49;;;;;;;8.50;7.70;;;;;21.40;101372.00;;;;2068715;28;20222;-50
2022/03/16 01:48:50;;;;;;;7.83;7.07;;;;;21.40;101368.00;;;;2069808;28;20304;-50
2022/03/16 01:49:52;;;;;;;7.60;6.75;;;;;21.40;101374.00;;;;2070067;28;20227;-51
2022/03/16 01:50:53;;;;;;;8.00;7.20;;;;;21.40;101369.00;;;;2069716;28;20222;-49
2022/03/16 01:51:53;;;;;;;7.47;6.50;;;;;21.40;101380.00;;;;2055741;28;20218;-49
2022/03/16 01:52:53;;;;;;;8.10;7.40;;;;;21.40;101371.00;;;;2055751;28;20220;-49
2022/03/16 01:53:54;;;;;;;9.93;7.70;;;;;21.30;101376.00;;;;2065039;28;20211;-50
2022/03/16 01:54:54;;;;;;;8.43;7.20;;;;;21.40;101370.00;;;;2073860;28;20236;-50
2022/03/16 01:55:54;;;;;;;6.70;6.10;;;;;21.40;101382.00;;;;2077582;28;20225;-50
2022/03/16 01:56:55;;;;;;;7.73;6.97;;;;;21.40;101368.00;;;;2078249;28;20224;-49
2022/03/16 01:57:55;;;;;;;7.73;6.13;;;;;21.40;101362.00;;;;2078565;28;20225;-49
2022/03/16 01:58:55;;;;;;;8.77;7.10;;;;;21.40;101365.00;;;;2077419;28;20244;-50
2022/03/16 01:59:56;;;;;;;8.03;7.23;;;;;21.40;101374.00;;;;2077817;28;20290;-49
2022/03/16 02:00:56;;;;;;;9.10;7.17;;;;;21.40;101372.00;;;;2077667;28;20221;-50
2022/03/16 02:01:58;;;;;;;7.20;6.50;;;;;21.40;101380.00;;;;2077749;28;20300;-50
2022/03/16 02:02:58;;;;;;;9.95;7.25;;;;;21.40;101369.00;;;;2071033;28;20224;-50
2022/03/16 02:03:58;;;;;;;7.33;6.63;;;;;21.40;101364.00;;;;2069613;28;20218;-52
2022/03/16 02:04:59;;;;;;;7.83;6.97;;;;;21.50;101350.00;;;;2070031;28;20226;-49
2022/03/16 02:06:00;;;;;;;9.77;7.20;;;;;21.40;101361.00;;;;2070937;28;20256;-49
2022/03/16 02:07:00;;;;;;;8.23;7.00;;;;;21.40;101361.00;;;;2077135;28;20213;-49
2022/03/16 02:08:01;;;;;;;7.87;6.30;;;;;21.40;101361.00;;;;2074495;28;20229;-49
2022/03/16 02:09:01;;;;;;;7.47;6.67;;;;;21.40;101360.00;;;;2073702;28;20225;-49
2022/03/16 02:10:01;;;;;;;6.67;5.97;;;;;21.40;101352.00;;;;2075641;28;20228;-49
2022/03/16 02:11:02;;;;;;;8.13;6.50;;;;;21.40;101360.00;;;;2068973;28;22237;-49
2022/03/16 02:12:03;;;;;;;8.85;6.03;;;;;21.40;101358.00;;;;2064642;28;20218;-49
2022/03/16 02:13:04;;;;;;;8.00;7.20;;;;;21.40;101360.00;;;;2074316;28;20217;-49
2022/03/16 02:14:04;;;;;;;7.20;6.50;;;;;21.40;101357.00;;;;2069054;28;20666;-49
2022/03/16 02:15:05;;;;;;;6.57;5.97;;;;;21.40;101352.00;;;;2062510;28;20224;-49
2022/03/16 02:16:08;;;;;;;10.00;7.07;;;;;21.40;101350.00;;;;2068578;28;20246;-49
2022/03/16 02:17:09;;;;;;;7.50;5.97;;;;;21.40;101356.00;;;;2076078;28;20542;-49
2022/03/16 02:18:09;;;;;;;7.40;6.47;;;;;21.40;101268.00;;;;2073660;28;21066;-49
2022/03/16 02:19:09;;;;;;;7.23;6.00;;;;;21.40;101349.00;;;;2074406;28;20582;-49
2022/03/16 02:20:10;;;;;;;6.67;6.03;;;;;21.40;101359.00;;;;2079506;28;20220;-50
2022/03/16 02:21:10;;;;;;;6.73;6.03;;;;;21.40;101345.00;;;;2072075;28;20210;-49
2022/03/16 02:22:13;;;;;;;8.17;6.20;;;;;21.40;101362.00;;;;2063267;28;20214;-49
2022/03/16 02:23:14;;;;;;;7.93;6.05;;;;;21.40;101360.00;;;;2063952;28;20273;-49
2022/03/16 02:24:14;;;;;;;6.87;6.20;;;;;21.40;101347.00;;;;2079252;28;20209;-50
2022/03/16 02:25:16;;;;;;;6.53;5.83;;;;;21.40;101349.00;;;;2071672;28;20209;-49
2022/03/16 02:26:16;;;;;;;6.43;5.75;;;;;21.40;101346.00;;;;2061073;28;20268;-51
2022/03/16 02:27:16;;;;;;;6.97;6.27;;;;;21.40;101348.00;;;;2071211;28;20292;-50
2022/03/16 02:28:18;;;;;;;7.07;6.33;;;;;21.40;101352.00;;;;2071837;28;20213;-49
2022/03/16 02:29:18;;;;;;;7.28;6.57;;;;;21.30;101366.00;;;;2072477;28;20527;-49
2022/03/16 02:30:20;;;;;;;7.50;6.27;;;;;21.30;101380.00;;;;2079255;28;20217;-49
2022/03/16 02:31:20;;;;;;;6.75;5.75;;;;;21.30;101349.00;;;;2080050;28;20267;-49
2022/03/16 02:32:21;;;;;;;6.97;6.27;;;;;21.40;101356.00;;;;2080021;28;20463;-48
2022/03/16 02:33:22;;;;;;;6.50;5.90;;;;;21.30;101350.00;;;;2073340;28;20224;-50
2022/03/16 02:34:22;;;;;;;7.67;6.20;;;;;21.30;101344.00;;;;2077434;28;20601;-49
2022/03/16 02:35:22;;;;;;;6.20;5.60;;;;;21.30;101348.00;;;;2071057;28;20473;-48
2022/03/16 02:36:24;;;;;;;6.50;5.87;;;;;21.30;101348.00;;;;2071684;28;20340;-50
2022/03/16 02:37:24;;;;;;;6.18;5.57;;;;;21.30;101343.00;;;;2071696;28;20213;-49
2022/03/16 02:38:24;;;;;;;6.23;5.63;;;;;21.30;101341.00;;;;2068319;28;20220;-49
2022/03/16 02:39:24;;;;;;;6.20;5.60;;;;;21.30;101343.00;;;;2071802;28;20202;-49
2022/03/16 02:40:25;;;;;;;6.20;5.60;;;;;21.30;101346.00;;;;2071382;28;20210;-49
2022/03/16 02:41:25;;;;;;;6.70;6.10;;;;;21.30;101340.00;;;;2070857;28;20256;-50
2022/03/16 02:42:25;;;;;;;6.03;5.37;;;;;21.30;101336.00;;;;2071657;28;20206;-50
2022/03/16 02:43:27;;;;;;;6.20;5.47;;;;;21.30;101338.00;;;;2071659;28;20264;-49
2022/03/16 02:44:28;;;;;;;5.97;5.28;;;;;21.30;101341.00;;;;2071589;28;20217;-49
2022/03/16 02:45:28;;;;;;;5.93;5.37;;;;;21.30;101336.00;;;;2070672;28;20206;-50
2022/03/16 02:46:29;;;;;;;5.57;5.10;;;;;21.30;101347.00;;;;2070390;28;20461;-49
2022/03/16 02:47:29;;;;;;;6.30;5.70;;;;;21.30;101334.00;;;;2071003;28;20777;-49
2022/03/16 02:48:29;;;;;;;6.17;5.57;;;;;21.30;101331.00;;;;2071727;28;20906;-49
2022/03/16 02:49:31;;;;;;;5.97;5.37;;;;;21.30;101338.00;;;;2071748;28;20268;-50
2022/03/16 02:50:31;;;;;;;5.70;5.20;;;;;21.30;101334.00;;;;2071761;28;20688;-49
2022/03/16 02:51:32;;;;;;;5.57;4.80;;;;;21.30;101340.00;;;;2071598;28;20217;-50
2022/03/16 02:52:32;;;;;;;5.33;4.73;;;;;21.30;101334.00;;;;2071538;28;20713;-49
2022/03/16 02:53:33;;;;;;;6.40;5.70;;;;;21.30;101331.00;;;;2070445;28;20242;-50
2022/03/16 02:54:33;;;;;;;5.70;5.10;;;;;21.30;101333.00;;;;2070605;28;20221;-50
2022/03/16 02:55:34;;;;;;;6.20;5.60;;;;;21.30;101335.00;;;;2067255;28;20364;-49
2022/03/16 02:56:34;;;;;;;6.83;5.60;;;;;21.30;101295.00;;;;2068572;28;20674;-48
2022/03/16 02:57:35;;;;;;;5.87;5.27;;;;;21.30;101334.00;;;;2070716;28;20594;-49
2022/03/16 02:58:35;;;;;;;5.13;4.73;;;;;21.30;101331.00;;;;2071440;28;20218;-48
2022/03/16 02:59:36;;;;;;;5.43;4.93;;;;;21.20;101330.00;;;;2071150;28;20221;-50
2022/03/16 03:00:38;;;;;;;5.70;5.20;;;;;21.30;101333.00;;;;2067459;28;20225;-49
2022/03/16 03:01:38;;;;;;;5.70;4.90;;;;;21.30;101328.00;;;;2075288;28;20829;-49
2022/03/16 03:02:41;;;;;;;5.37;4.87;;;;;21.30;101328.00;;;;2078957;28;20224;-49
2022/03/16 03:03:41;;;;;;;5.30;4.80;;;;;21.30;101328.00;;;;2079788;28;20237;-49
2022/03/16 03:04:42;;;;;;;5.60;5.10;;;;;21.30;101329.00;;;;2072266;28;20671;-49
2022/03/16 03:05:44;;;;;;;5.60;5.10;;;;;21.30;101330.00;;;;2066785;28;20548;-49
2022/03/16 03:06:44;;;;;;;5.63;4.80;;;;;21.30;101332.00;;;;2076807;28;20458;-49
2022/03/16 03:07:44;;;;;;;5.70;5.20;;;;;21.30;101337.00;;;;2078088;28;20209;-49
2022/03/16 03:08:45;;;;;;;5.57;5.07;;;;;21.30;101336.00;;;;2079232;28;20328;-49
2022/03/16 03:09:45;;;;;;;5.80;5.30;;;;;21.30;101338.00;;;;2071345;28;20242;-49
2022/03/16 03:10:45;;;;;;;5.30;4.80;;;;;21.20;101337.00;;;;2065769;28;20210;-49
2022/03/16 03:11:46;;;;;;;6.03;5.43;;;;;21.20;101331.00;;;;2072015;28;20221;-49
2022/03/16 03:12:46;;;;;;;5.20;4.70;;;;;21.20;101333.00;;;;2070999;28;20214;-50
2022/03/16 03:13:47;;;;;;;6.00;5.13;;;;;21.20;101336.00;;;;2071108;28;20214;-49
2022/03/16 03:14:47;;;;;;;4.80;4.40;;;;;21.30;101334.00;;;;2079192;28;20292;-49
2022/03/16 03:15:47;;;;;;;5.20;4.70;;;;;21.20;101336.00;;;;2077871;28;20302;-49
2022/03/16 03:16:48;;;;;;;5.00;4.60;;;;;21.20;101335.00;;;;2079401;28;20212;-49
2022/03/16 03:17:48;;;;;;;6.10;5.33;;;;;21.20;101324.00;;;;2079395;28;20272;-48
2022/03/16 03:18:48;;;;;;;5.10;4.60;;;;;21.20;101322.00;;;;2079541;28;20213;-49
2022/03/16 03:19:49;;;;;;;6.70;5.23;;;;;21.30;101327.00;;;;2079265;28;20210;-49
2022/03/16 03:20:49;;;;;;;5.20;4.70;;;;;21.30;101330.00;;;;2079640;28;20252;-48
2022/03/16 03:21:50;;;;;;;5.40;4.90;;;;;21.20;101323.00;;;;2079429;28;20220;-49
2022/03/16 03:22:50;;;;;;;5.53;5.00;;;;;21.20;101323.00;;;;2078815;28;20217;-48
2022/03/16 03:23:50;;;;;;;5.30;4.80;;;;;21.20;101330.00;;;;2079080;28;20225;-48
2022/03/16 03:24:50;;;;;;;5.03;4.53;;;;;21.20;101323.00;;;;2079307;28;20222;-49
2022/03/16 03:25:51;;;;;;;5.20;4.43;;;;;21.20;101325.00;;;;2078850;28;20253;-49
2022/03/16 03:26:51;;;;;;;6.03;4.90;;;;;21.20;101323.00;;;;2071335;28;20218;-49
2022/03/16 03:27:51;;;;;;;6.07;5.50;;;;;21.20;101321.00;;;;2073275;28;20273;-49
2022/03/16 03:28:52;;;;;;;5.50;4.90;;;;;21.20;101323.00;;;;2078651;28;20310;-49
2022/03/16 03:29:52;;;;;;;5.57;5.10;;;;;21.20;101324.00;;;;2072503;28;20822;-49
2022/03/16 03:30:52;;;;;;;5.30;4.80;;;;;21.20;101329.00;;;;2071986;28;20218;-49
2022/03/16 03:31:53;;;;;;;5.10;4.60;;;;;21.20;101324.00;;;;2073203;28;20221;-49
2022/03/16 03:32:53;;;;;;;5.33;4.83;;;;;21.20;101327.00;;;;2087172;28;20220;-49
2022/03/16 03:33:54;;;;;;;4.97;4.57;;;;;21.20;101327.00;;;;2083191;28;20249;-49
2022/03/16 03:34:55;;;;;;;5.60;5.03;;;;;21.20;101325.00;;;;2067291;28;20252;-49
2022/03/16 03:35:56;;;;;;;5.20;4.70;;;;;21.20;101322.00;;;;2070367;28;20268;-52
2022/03/16 03:36:56;;;;;;;5.20;4.70;;;;;21.20;101318.00;;;;2071055;28;20210;-52
2022/03/16 03:37:56;;;;;;;5.07;4.57;;;;;21.20;101321.00;;;;2071424;28;20228;-51
2022/03/16 03:38:57;;;;;;;5.30;4.80;;;;;21.20;101329.00;;;;2066745;28;20214;-51
2022/03/16 03:39:57;;;;;;;5.17;4.67;;;;;21.20;101345.00;;;;2074560;28;20221;-50
2022/03/16 03:40:57;;;;;;;5.57;5.07;;;;;21.20;101340.00;;;;2077683;28;20209;-49
2022/03/16 03:41:58;;;;;;;5.77;5.20;;;;;21.20;101332.00;;;;2071288;28;20980;-48
2022/03/16 03:42:58;;;;;;;4.60;4.20;;;;;21.10;101341.00;;;;2071316;28;20686;-50
2022/03/16 03:43:59;;;;;;;4.70;4.20;;;;;21.20;101341.00;;;;2071354;28;20496;-49
2022/03/16 03:44:59;;;;;;;5.30;4.80;;;;;21.10;101337.00;;;;2068702;28;20222;-49
2022/03/16 03:46:00;;;;;;;4.73;4.33;;;;;21.10;101329.00;;;;2070557;28;20210;-48
2022/03/16 03:47:00;;;;;;;4.80;4.30;;;;;21.20;101329.00;;;;2070840;28;20719;-49
2022/03/16 03:48:01;;;;;;;5.53;4.83;;;;;21.20;101324.00;;;;2079127;28;20217;-49
2022/03/16 03:49:01;;;;;;;4.57;4.17;;;;;21.10;101331.00;;;;2077740;28;20279;-49
2022/03/16 03:50:02;;;;;;;5.23;4.73;;;;;21.10;101329.00;;;;2070795;28;20253;-49
2022/03/16 03:51:03;;;;;;;5.13;4.63;;;;;21.10;101328.00;;;;2070109;28;20757;-49
2022/03/16 03:52:04;;;;;;;5.10;4.60;;;;;21.10;101322.00;;;;2069672;28;20206;-49
2022/03/16 03:53:04;;;;;;;5.10;4.70;;;;;21.10;101326.00;;;;2067549;28;20237;-49
2022/03/16 03:54:04;;;;;;;5.23;4.73;;;;;21.10;101327.00;;;;2071186;28;20218;-49
2022/03/16 03:55:06;;;;;;;5.23;4.50;;;;;21.10;101333.00;;;;2070402;28;20285;-50
2022/03/16 03:56:06;;;;;;;4.80;4.40;;;;;21.10;101327.00;;;;2069166;28;20218;-49
2022/03/16 03:57:07;;;;;;;4.97;4.57;;;;;21.10;101321.00;;;;2068906;28;20210;-49
2022/03/16 03:58:07;;;;;;;4.57;4.17;;;;;21.10;101323.00;;;;2070579;28;20225;-49
2022/03/16 03:59:07;;;;;;;4.97;4.47;;;;;21.10;101324.00;;;;2070754;28;20233;-49
2022/03/16 04:00:08;;;;;;;4.87;4.47;;;;;21.10;101317.00;;;;2070869;28;20319;-49
2022/03/16 04:01:09;;;;;;;5.37;4.87;;;;;21.10;101321.00;;;;2069754;28;20272;-49
2022/03/16 04:02:10;;;;;;;4.77;4.33;;;;;21.10;101319.00;;;;2071221;28;20226;-49
2022/03/16 04:03:10;;;;;;;4.90;4.40;;;;;21.10;101325.00;;;;2071174;28;20511;-49
2022/03/16 04:04:11;;;;;;;5.20;4.70;;;;;21.10;101320.00;;;;2071666;28;20453;-49
2022/03/16 04:05:11;;;;;;;5.27;4.77;;;;;21.10;101326.00;;;;2077951;28;20210;-49
2022/03/16 04:06:12;;;;;;;5.10;4.60;;;;;21.10;101322.00;;;;2069917;28;20217;-49
2022/03/16 04:07:13;;;;;;;5.47;4.83;;;;;21.10;101329.00;;;;2077071;28;20280;-50
2022/03/16 04:08:13;;;;;;;5.00;4.60;;;;;21.10;101324.00;;;;2076421;28;20213;-49
2022/03/16 04:09:14;;;;;;;4.87;4.40;;;;;21.10;101318.00;;;;2070978;28;20198;-49
2022/03/16 04:10:14;;;;;;;4.93;4.53;;;;;21.10;101320.00;;;;2071008;28;20210;-49
2022/03/16 04:11:15;;;;;;;4.50;4.10;;;;;21.10;101314.00;;;;2071186;28;20234;-49
2022/03/16 04:12:15;;;;;;;5.20;4.13;;;;;21.10;101317.00;;;;2071767;28;20202;-49
2022/03/16 04:13:15;;;;;;;4.40;4.10;;;;;21.10;101326.00;;;;2069782;28;20206;-49
2022/03/16 04:14:16;;;;;;;5.17;4.67;;;;;21.10;101322.00;;;;2072488;28;20237;-49
2022/03/16 04:15:20;;;;;;;5.47;4.30;;;;;21.10;101327.00;;;;2078766;28;20201;-49
2022/03/16 04:16:20;;;;;;;4.60;4.15;;;;;21.10;101324.00;;;;2070910;28;20453;-49
2022/03/16 04:17:22;;;;;;;5.10;4.70;;;;;21.10;101317.00;;;;2070794;28;20241;-49
2022/03/16 04:18:25;;;;;;;4.35;3.95;;;;;21.10;101325.00;;;;2070858;28;20718;-49
2022/03/16 04:19:26;;;;;;;6.70;4.40;;;;;21.10;101324.00;;;;2070907;28;20220;-49
2022/03/16 04:20:26;;;;;;;4.60;4.20;;;;;21.10;101326.00;;;;2071160;28;20748;-49
2022/03/16 04:21:27;;;;;;;4.77;4.33;;;;;21.10;101320.00;;;;2070958;28;20705;-49
2022/03/16 04:22:27;;;;;;;3.77;3.37;;;;;21.10;101321.00;;;;2070958;28;20780;-49
2022/03/16 04:23:28;;;;;;;4.90;3.73;;;;;21.10;101328.00;;;;2070862;28;20263;-49
2022/03/16 04:24:28;;;;;;;4.40;3.90;;;;;21.10;101334.00;;;;2070888;28;20485;-49
2022/03/16 04:25:28;;;;;;;4.50;4.10;;;;;21.10;101328.00;;;;2070177;28;20214;-49
2022/03/16 04:26:29;;;;;;;4.87;4.17;;;;;21.10;101332.00;;;;2070290;28;20280;-49
2022/03/16 04:27:29;;;;;;;4.83;4.33;;;;;21.00;101332.00;;;;2070623;28;20264;-49
2022/03/16 04:28:29;;;;;;;4.50;4.10;;;;;21.00;101327.00;;;;2070843;28;20222;-49
2022/03/16 04:29:30;;;;;;;5.20;4.43;;;;;21.00;101332.00;;;;2070570;28;20280;-49
2022/03/16 04:30:30;;;;;;;4.13;3.80;;;;;21.00;101329.00;;;;2073103;28;20241;-49
2022/03/16 04:31:31;;;;;;;4.60;4.20;;;;;21.10;101335.00;;;;2077640;28;21001;-49
2022/03/16 04:32:31;;;;;;;4.73;4.33;;;;;21.10;101326.00;;;;2078201;28;20771;-49
2022/03/16 04:33:31;;;;;;;4.50;4.10;;;;;21.00;101325.00;;;;2076624;28;20297;-49
2022/03/16 04:34:32;;;;;;;4.07;3.67;;;;;21.00;101326.00;;;;2076804;28;20232;-48
2022/03/16 04:35:32;;;;;;;4.60;4.07;;;;;21.00;101330.00;;;;2069988;28;20230;-49
2022/03/16 04:36:32;;;;;;;4.07;3.77;;;;;21.00;101339.00;;;;2070507;28;20224;-49
2022/03/16 04:37:33;;;;;;;4.83;4.20;;;;;21.00;101342.00;;;;2070635;28;20289;-49
2022/03/16 04:38:33;;;;;;;5.13;4.63;;;;;21.00;101329.00;;;;2070647;28;20229;-49
2022/03/16 04:39:34;;;;;;;5.10;4.20;;;;;21.00;101335.00;;;;2070147;28;20218;-49
2022/03/16 04:40:35;;;;;;;6.03;3.77;;;;;21.00;101326.00;;;;2069870;28;20249;-49
2022/03/16 04:41:35;;;;;;;7.20;4.23;;;;;21.00;101336.00;;;;2070027;28;20230;-49
2022/03/16 04:42:35;;;;;;;4.80;4.30;;;;;21.00;101334.00;;;;2075286;28;20646;-49
2022/03/16 04:43:35;;;;;;;4.70;4.30;;;;;21.00;101334.00;;;;2071813;28;20456;-55
2022/03/16 04:44:36;;;;;;;4.50;3.77;;;;;21.00;101327.00;;;;2070867;28;20307;-51
2022/03/16 04:45:38;;;;;;;5.87;4.20;;;;;21.10;101330.00;;;;2069964;28;20210;-51
2022/03/16 04:46:39;;;;;;;4.35;4.05;;;;;21.10;101331.00;;;;2072504;28;20222;-49
2022/03/16 04:47:39;;;;;;;4.60;4.20;;;;;21.00;101328.00;;;;2078086;28;20218;-49
2022/03/16 04:48:40;;;;;;;4.13;3.73;;;;;21.10;101337.00;;;;2071898;28;20218;-50
2022/03/16 04:49:40;;;;;;;4.30;3.90;;;;;21.10;101332.00;;;;2070712;28;20810;-50
2022/03/16 04:50:41;;;;;;;4.43;3.83;;;;;21.10;101323.00;;;;2070458;28;20214;-49
2022/03/16 04:51:41;;;;;;;4.63;4.17;;;;;21.10;101339.00;;;;2070539;28;20218;-50
2022/03/16 04:52:43;;;;;;;4.60;4.20;;;;;21.10;101325.00;;;;2070489;28;20221;-49
2022/03/16 04:53:44;;;;;;;4.18;3.80;;;;;21.10;101335.00;;;;2070166;28;20217;-49
2022/03/16 04:54:44;;;;;;;7.93;4.70;;;;;21.10;101334.00;;;;2069906;28;20210;-50
2022/03/16 04:55:45;;;;;;;6.30;5.70;;;;;21.00;101332.00;;;;2069627;28;20924;-50
2022/03/16 04:56:46;;;;;;;7.27;4.53;;;;;20.90;101337.00;;;;2077614;28;20206;-50
2022/03/16 04:57:47;;;;;;;5.60;5.10;;;;;20.80;101333.00;;;;2077304;28;20284;-50